Time;durP1;ratioP1;P1;durP2;ratioP2;P2;SDS_P1;SDS_P2;PMS_P1;PMS_P2;Temp;Humidity;BMP_temperature;BMP_pressure;BME280_temperature;BME280_humidity;BME280_pressure;Samples;Min_cycle;Max_cycle;Signal;HPM_P1;HPM_P2
2023/11/20 00:02:14;;;;;;;9.02;1.80;;;;;;;8.40;100.00;97826.78;15282050;19;20050;-51
2023/11/20 00:07:42;;;;;;;8.20;1.92;;;;;;;8.38;100.00;97820.72;15279100;19;20014;-50
2023/11/20 00:13:06;;;;;;;7.57;1.70;;;;;;;8.35;100.00;97814.84;15278359;19;20010;-51
2023/11/20 00:18:31;;;;;;;7.93;1.80;;;;;;;8.32;100.00;97807.97;15281209;19;20085;-50
2023/11/20 00:23:58;;;;;;;7.65;1.70;;;;;;;8.29;100.00;97806.44;15275471;19;20041;-52
2023/11/20 00:29:23;;;;;;;6.85;1.70;;;;;;;8.30;100.00;97816.16;15280624;19;20027;-53
2023/11/20 00:34:48;;;;;;;6.95;1.60;;;;;;;8.28;100.00;97818.19;15281602;19;20074;-51
2023/11/20 00:40:17;;;;;;;7.10;1.50;;;;;;;8.28;100.00;97804.78;15278934;19;20039;-54
2023/11/20 00:45:42;;;;;;;5.05;1.30;;;;;;;8.31;100.00;97809.78;15275848;19;20018;-55
2023/11/20 00:51:08;;;;;;;10.13;1.70;;;;;;;8.32;100.00;97808.78;15278767;19;20020;-52
2023/11/20 00:56:35;;;;;;;8.05;1.60;;;;;;;8.33;100.00;97815.84;15279572;19;20018;-53
2023/11/20 01:02:00;;;;;;;7.65;1.60;;;;;;;8.37;100.00;97815.53;15276026;19;20741;-55
2023/11/20 01:07:24;;;;;;;5.53;1.52;;;;;;;8.35;100.00;97810.31;15020948;19;5001485;-51
2023/11/20 01:12:52;;;;;;;6.97;1.67;;;;;;;8.34;100.00;97811.34;15276399;19;20024;-52
2023/11/20 01:18:17;;;;;;;10.35;1.90;;;;;;;8.32;100.00;97818.69;15270628;19;20481;-50
2023/11/20 01:23:42;;;;;;;6.90;1.50;;;;;;;8.32;100.00;97819.53;15273152;19;20020;-50
2023/11/20 01:29:10;;;;;;;7.20;1.45;;;;;;;8.35;100.00;97822.91;15276419;19;20014;-54
2023/11/20 01:34:35;;;;;;;4.85;1.20;;;;;;;8.36;100.00;97816.53;15278250;19;20396;-51
2023/11/20 01:39:59;;;;;;;6.07;1.35;;;;;;;8.40;100.00;97821.41;15278099;19;20015;-51
2023/11/20 01:45:33;;;;;;;4.82;1.08;;;;;;;8.45;100.00;97826.28;15277054;19;20014;-52
2023/11/20 01:51:00;;;;;;;4.55;1.10;;;;;;;8.48;100.00;97817.94;15268581;19;20050;-53
2023/11/20 01:56:24;;;;;;;4.78;1.02;;;;;;;8.54;100.00;97822.66;15276891;19;20015;-56
2023/11/20 02:01:52;;;;;;;5.05;1.00;;;;;;;8.60;100.00;97821.16;15271342;19;20014;-51
2023/11/20 02:07:17;;;;;;;4.50;1.27;;;;;;;8.64;100.00;97820.66;15271546;19;20546;-52
2023/11/20 02:12:43;;;;;;;4.78;1.10;;;;;;;8.72;100.00;97827.06;15270202;19;20530;-53
2023/11/20 02:18:10;;;;;;;4.03;0.93;;;;;;;8.74;100.00;97809.78;15276268;19;20010;-51
2023/11/20 02:23:35;;;;;;;4.60;1.10;;;;;;;8.83;100.00;97804.41;15263485;19;20416;-52
2023/11/20 02:29:06;;;;;;;4.20;0.90;;;;;;;8.91;100.00;97809.81;15274422;19;20077;-53
2023/11/20 02:34:36;;;;;;;2.58;0.90;;;;;;;8.99;100.00;97803.63;15273129;19;20039;-53
2023/11/20 02:40:00;;;;;;;3.85;0.90;;;;;;;9.09;100.00;97807.00;15278008;19;20499;-53
2023/11/20 02:45:32;;;;;;;3.42;0.93;;;;;;;9.14;100.00;97799.25;15287400;19;20038;-48
2023/11/20 02:51:01;;;;;;;2.92;0.90;;;;;;;9.23;100.00;97782.09;15286434;19;20029;-48
2023/11/20 02:56:26;;;;;;;3.50;1.00;;;;;;;9.30;100.00;97782.28;15279703;19;20019;-50
2023/11/20 03:01:53;;;;;;;4.97;0.98;;;;;;;9.33;100.00;97767.69;15280542;19;20753;-49
2023/11/20 03:07:20;;;;;;;2.30;0.80;;;;;;;9.36;100.00;97772.69;15285221;19;20027;-52
2023/11/20 03:12:45;;;;;;;4.38;1.20;;;;;;;9.37;100.00;97760.94;15281141;19;20479;-55
2023/11/20 03:18:10;;;;;;;4.82;0.93;;;;;;;9.39;100.00;97762.47;15286567;19;20082;-54
2023/11/20 03:23:38;;;;;;;4.00;0.95;;;;;;;9.48;100.00;97760.59;15282948;19;20015;-54
2023/11/20 03:29:03;;;;;;;2.28;0.80;;;;;;;9.56;100.00;97757.91;15276912;19;20022;-53
2023/11/20 03:34:28;;;;;;;4.10;0.82;;;;;;;9.62;100.00;97755.53;15287409;19;20078;-53
2023/11/20 03:39:56;;;;;;;2.25;0.80;;;;;;;9.63;100.00;97752.69;15285492;19;20082;-49
2023/11/20 03:45:27;;;;;;;2.90;0.80;;;;;;;9.65;100.00;97744.44;15283112;19;20021;-52
2023/11/20 03:50:52;;;;;;;1.47;0.63;;;;;;;9.65;100.00;97729.13;15280560;19;20026;-53
2023/11/20 03:56:19;;;;;;;1.27;0.50;;;;;;;9.68;100.00;97717.19;15284150;19;20059;-52
2023/11/20 04:01:44;;;;;;;1.55;0.40;;;;;;;9.75;100.00;97711.97;15271971;19;20018;-54
2023/11/20 04:07:09;;;;;;;1.77;0.50;;;;;;;9.79;100.00;97706.06;15278355;19;20817;-49
2023/11/20 04:12:37;;;;;;;4.43;0.63;;;;;;;9.80;100.00;97709.56;15284403;19;20014;-52
2023/11/20 04:18:02;;;;;;;1.73;0.50;;;;;;;9.84;100.00;97705.53;15281571;19;20584;-49
2023/11/20 04:23:27;;;;;;;2.20;0.50;;;;;;;9.86;100.00;97708.88;15281391;19;20082;-52
2023/11/20 04:28:56;;;;;;;0.60;0.30;;;;;;;9.87;100.00;97706.00;15282817;19;20028;-49
2023/11/20 04:34:21;;;;;;;1.05;0.40;;;;;;;9.91;100.00;97684.97;15284792;19;20042;-49
2023/11/20 04:39:46;;;;;;;2.28;0.50;;;;;;;9.94;100.00;97690.00;15285183;19;20077;-49
2023/11/20 04:45:20;;;;;;;1.48;0.40;;;;;;;9.94;100.00;97667.63;15282727;19;20021;-49
2023/11/20 04:50:45;;;;;;;1.50;0.40;;;;;;;9.93;100.00;97666.81;15284458;19;20026;-49
2023/11/20 04:56:16;;;;;;;2.38;0.50;;;;;;;9.94;100.00;97667.63;15283162;19;20022;-49
2023/11/20 05:01:44;;;;;;;1.40;0.40;;;;;;;9.94;100.00;97656.88;15280321;19;20018;-50
2023/11/20 05:07:08;;;;;;;1.75;0.38;;;;;;;10.01;100.00;97668.63;15282893;19;20389;-56
2023/11/20 05:12:33;;;;;;;1.45;0.50;;;;;;;9.99;100.00;97659.88;15282012;19;20015;-50
2023/11/20 05:18:00;;;;;;;1.05;0.40;;;;;;;9.96;100.00;97660.22;15284837;19;20030;-54
2023/11/20 05:23:25;;;;;;;1.08;0.50;;;;;;;9.95;100.00;97650.47;15277202;19;20761;-55
2023/11/20 05:28:54;;;;;;;1.50;0.40;;;;;;;9.95;100.00;97675.56;15278556;19;20022;-55
2023/11/20 05:34:22;;;;;;;4.07;0.40;;;;;;;9.94;100.00;97662.25;15276007;19;20019;-55
2023/11/20 05:39:47;;;;;;;1.45;0.32;;;;;;;9.97;100.00;97667.28;15269666;19;20033;-54
2023/11/20 05:45:18;;;;;;;1.30;0.40;;;;;;;9.98;100.00;97672.50;15278253;19;20018;-52
2023/11/20 05:50:46;;;;;;;0.77;0.30;;;;;;;9.97;100.00;97681.59;15281366;19;20384;-53
2023/11/20 05:56:12;;;;;;;1.05;0.30;;;;;;;10.02;100.00;97679.19;15281699;19;20259;-55
2023/11/20 06:01:40;;;;;;;0.65;0.30;;;;;;;10.04;100.00;97670.97;15278813;19;20409;-54
2023/11/20 06:07:07;;;;;;;2.25;0.40;;;;;;;10.00;100.00;97675.84;15280877;19;20484;-54
2023/11/20 06:12:32;;;;;;;1.33;0.50;;;;;;;9.89;100.00;97670.03;15273698;19;20085;-52
2023/11/20 06:17:57;;;;;;;0.75;0.30;;;;;;;9.70;100.00;97678.34;15297408;19;20105;-56
2023/11/20 06:23:24;;;;;;;1.45;0.40;;;;;;;9.59;100.00;97700.22;15289152;19;20105;-49
2023/11/20 06:28:50;;;;;;;1.35;0.38;;;;;;;9.56;100.00;97706.81;15289366;19;20022;-56
2023/11/20 06:34:15;;;;;;;1.48;0.50;;;;;;;9.60;100.00;97725.25;15293864;19;20017;-49
2023/11/20 06:39:43;;;;;;;2.35;0.55;;;;;;;9.66;100.00;97722.72;15290894;19;20082;-55
2023/11/20 06:45:16;;;;;;;3.80;0.70;;;;;;;9.74;100.00;97719.19;15288179;19;20410;-56
2023/11/20 06:50:42;;;;;;;2.70;0.90;;;;;;;9.78;100.00;97696.31;15292714;19;20026;-54
2023/11/20 06:56:10;;;;;;;2.08;0.60;;;;;;;9.79;100.00;97689.06;15291593;19;20025;-49
2023/11/20 07:01:34;;;;;;;3.53;0.40;;;;;;;9.81;100.00;97671.75;15290465;19;20035;-55
2023/11/20 07:06:58;;;;;;;1.10;0.38;;;;;;;9.85;100.00;97654.22;15291530;19;20426;-51
2023/11/20 07:12:26;;;;;;;1.50;0.50;;;;;;;9.87;100.00;97649.53;15289259;19;20796;-50
2023/11/20 07:17:51;;;;;;;2.50;0.50;;;;;;;9.92;100.00;97642.78;15295731;19;20418;-50
2023/11/20 07:23:15;;;;;;;6.63;0.70;;;;;;;9.95;100.00;97626.25;15281213;19;20090;-54
2023/11/20 07:28:44;;;;;;;1.98;0.47;;;;;;;9.96;100.00;97630.63;15285369;19;20018;-52
2023/11/20 07:34:08;;;;;;;0.73;0.30;;;;;;;10.02;100.00;97617.31;15283903;19;20015;-50
2023/11/20 07:39:32;;;;;;;1.73;0.50;;;;;;;10.09;100.00;97633.59;15288321;19;20028;-52
2023/11/20 07:45:07;;;;;;;1.17;0.50;;;;;;;10.11;100.00;97645.00;15285499;19;20039;-53
2023/11/20 07:50:31;;;;;;;0.75;0.30;;;;;;;10.22;100.00;97646.47;15285330;19;20014;-55
2023/11/20 07:55:57;;;;;;;1.73;0.50;;;;;;;10.26;100.00;97638.88;15289875;19;20014;-54
2023/11/20 08:01:25;;;;;;;0.75;0.30;;;;;;;10.30;100.00;97627.56;15287597;19;20025;-50
2023/11/20 08:06:50;;;;;;;0.80;0.40;;;;;;;10.32;100.00;97647.06;15285946;19;20070;-50
2023/11/20 08:12:14;;;;;;;0.77;0.30;;;;;;;10.34;100.00;97641.50;15279564;19;20015;-50
2023/11/20 08:17:42;;;;;;;1.13;0.40;;;;;;;10.36;100.00;97654.78;15287944;19;20039;-49
2023/11/20 08:23:06;;;;;;;0.63;0.40;;;;;;;10.37;100.00;97646.53;15279151;19;20022;-51
2023/11/20 08:28:32;;;;;;;0.22;0.15;;;;;;;10.38;100.00;97648.25;15279406;19;20018;-49
2023/11/20 08:34:00;;;;;;;0.80;0.30;;;;;;;10.43;100.00;97662.00;15280705;19;20047;-51
2023/11/20 08:39:31;;;;;;;1.02;0.30;;;;;;;10.47;100.00;97644.47;15281563;19;20018;-51
2023/11/20 08:44:56;;;;;;;0.70;0.40;;;;;;;10.50;100.00;97653.22;15281830;19;20489;-49
2023/11/20 08:50:25;;;;;;;0.70;0.30;;;;;;;10.47;100.00;97667.84;15281175;19;20006;-51
2023/11/20 08:55:50;;;;;;;1.10;0.30;;;;;;;10.60;100.00;97672.66;15286226;19;20838;-50
2023/11/20 09:01:15;;;;;;;1.63;0.50;;;;;;;10.75;100.00;97673.56;15282781;19;20486;-52
2023/11/20 09:06:42;;;;;;;1.15;0.43;;;;;;;10.72;100.00;97671.22;15285057;19;20021;-53
2023/11/20 09:12:07;;;;;;;0.50;0.30;;;;;;;10.74;100.00;97669.19;15274860;19;20090;-51
2023/11/20 09:17:34;;;;;;;0.75;0.30;;;;;;;10.85;100.00;97670.59;15284348;19;20444;-52
2023/11/20 09:23:02;;;;;;;1.23;0.30;;;;;;;11.00;100.00;97676.00;15274663;19;20018;-55
2023/11/20 09:28:26;;;;;;;0.65;0.17;;;;;;;11.27;100.00;97673.75;15279327;19;20025;-53
2023/11/20 09:33:52;;;;;;;0.60;0.28;;;;;;;11.26;100.00;97677.47;15276014;19;20097;-51
2023/11/20 09:39:19;;;;;;;0.30;0.20;;;;;;;11.19;100.00;97663.06;15278122;19;20371;-53
2023/11/20 09:44:55;;;;;;;1.35;0.38;;;;;;;11.14;100.00;97658.22;15276884;19;20033;-53
2023/11/20 09:50:21;;;;;;;0.25;0.20;;;;;;;11.08;100.00;97642.75;15276043;19;20390;-56
2023/11/20 09:55:49;;;;;;;0.10;0.03;;;;;;;11.01;100.00;97677.69;15282775;19;20055;-49
2023/11/20 10:01:14;;;;;;;0.77;0.25;;;;;;;10.99;100.00;97687.00;15278730;19;20014;-48
2023/11/20 10:06:41;;;;;;;1.27;0.30;;;;;;;10.96;100.00;97669.34;15280432;19;20014;-49
2023/11/20 10:12:12;;;;;;;0.35;0.20;;;;;;;10.83;100.00;97686.09;15270065;19;20025;-49
2023/11/20 10:17:39;;;;;;;0.75;0.17;;;;;;;10.65;100.00;97686.41;15280694;19;20039;-52
2023/11/20 10:23:07;;;;;;;2.70;0.35;;;;;;;10.71;100.00;97677.63;15272265;19;20043;-53
2023/11/20 10:28:35;;;;;;;0.90;0.20;;;;;;;10.87;100.00;97690.13;15277201;19;20018;-53
2023/11/20 10:34:09;;;;;;;1.13;0.30;;;;;;;10.95;100.00;97684.66;15269265;19;20021;-48
2023/11/20 10:39:34;;;;;;;1.17;0.40;;;;;;;11.08;100.00;97677.81;15277531;19;20684;-50
2023/11/20 10:45:02;;;;;;;1.60;0.30;;;;;;;11.29;100.00;97644.75;15274423;19;20028;-48
2023/11/20 10:50:28;;;;;;;0.75;0.40;;;;;;;11.57;100.00;97636.84;15281228;19;20105;-53
2023/11/20 10:55:58;;;;;;;1.50;0.40;;;;;;;11.67;100.00;97630.31;15282380;19;20074;-50
2023/11/20 11:01:25;;;;;;;1.83;0.60;;;;;;;11.67;100.00;97625.75;15287643;19;20011;-54
2023/11/20 11:06:51;;;;;;;2.33;0.38;;;;;;;11.64;100.00;97628.81;15297485;19;20018;-52
2023/11/20 11:12:17;;;;;;;1.65;0.47;;;;;;;11.62;100.00;97611.16;15282846;19;20066;-51
2023/11/20 11:17:50;;;;;;;1.15;0.60;;;;;;;11.69;100.00;97593.19;15292042;19;20356;-54
2023/11/20 11:23:17;;;;;;;1.52;0.50;;;;;;;11.88;100.00;97606.06;15282628;19;20018;-53
2023/11/20 11:28:46;;;;;;;2.33;0.60;;;;;;;12.05;100.00;97594.25;15288763;19;20040;-52
2023/11/20 11:34:34;;;;;;;1.33;0.63;;;;;;;11.93;100.00;97580.38;15288575;19;20014;-54
2023/11/20 11:40:09;;;;;;;3.00;0.75;;;;;;;11.65;100.00;97595.44;15289102;19;20031;-51
2023/11/20 11:45:44;;;;;;;2.40;0.73;;;;;;;11.54;100.00;97593.22;15285231;19;20082;-50
2023/11/20 11:51:21;;;;;;;1.60;0.70;;;;;;;11.48;100.00;97585.84;15286604;19;20029;-54
2023/11/20 11:56:48;;;;;;;2.38;0.88;;;;;;;11.44;100.00;97588.09;15289057;19;20081;-51
2023/11/20 12:02:18;;;;;;;2.90;0.80;;;;;;;11.41;100.00;97586.63;15280287;19;20024;-53
2023/11/20 12:08:07;;;;;;;1.60;0.60;;;;;;;11.40;100.00;97594.91;15290459;19;20015;-52
2023/11/20 12:13:32;;;;;;;2.55;0.70;;;;;;;11.36;100.00;97580.13;15280203;19;20061;-51
2023/11/20 12:18:57;;;;;;;2.58;0.70;;;;;;;11.39;100.00;97574.34;15288077;19;20023;-49
2023/11/20 12:24:27;;;;;;;3.42;0.95;;;;;;;11.47;100.00;97562.59;15284907;19;20815;-50
2023/11/20 12:29:54;;;;;;;3.03;0.70;;;;;;;11.42;100.00;97571.25;15286858;19;21027;-52
2023/11/20 12:35:19;;;;;;;1.58;0.80;;;;;;;11.43;100.00;97570.25;15287392;19;20086;-51
2023/11/20 12:40:47;;;;;;;2.00;0.85;;;;;;;11.46;100.00;97552.88;15284484;19;20019;-54
2023/11/20 12:46:19;;;;;;;2.42;0.70;;;;;;;11.47;100.00;97555.38;15283604;19;20070;-53
2023/11/20 12:51:44;;;;;;;2.83;0.80;;;;;;;11.45;100.00;97543.09;15282707;19;20360;-53
2023/11/20 12:57:13;;;;;;;4.18;0.90;;;;;;;11.34;100.00;97556.03;15285742;19;20074;-55
2023/11/20 13:02:37;;;;;;;2.60;0.80;;;;;;;11.19;100.00;97544.44;15274920;19;20018;-53
2023/11/20 13:08:12;;;;;;;2.80;0.82;;;;;;;11.12;100.00;97551.56;15286227;19;20372;-54
2023/11/20 13:13:40;;;;;;;2.78;0.82;;;;;;;11.02;100.00;97541.09;15276873;19;20025;-51
2023/11/20 13:19:04;;;;;;;3.90;1.00;;;;;;;11.03;100.00;97532.00;15283148;19;20018;-48
2023/11/20 13:24:31;;;;;;;1.73;0.70;;;;;;;10.91;100.00;97528.91;15279365;19;20498;-55
2023/11/20 13:30:25;;;;;;;2.63;0.80;;;;;;;10.90;100.00;97538.00;15279051;19;20014;-48
2023/11/20 13:35:50;;;;;;;3.13;0.70;;;;;;;10.86;100.00;97534.03;15282757;19;20022;-50
2023/11/20 13:41:16;;;;;;;2.65;0.80;;;;;;;10.88;100.00;97529.25;15281450;19;20399;-50
2023/11/20 13:46:50;;;;;;;2.47;0.77;;;;;;;10.91;100.00;97539.69;15281034;19;20018;-54
2023/11/20 13:52:15;;;;;;;2.53;0.80;;;;;;;10.91;100.00;97540.53;15278950;19;20018;-52
2023/11/20 13:57:42;;;;;;;2.25;0.75;;;;;;;10.80;100.00;97543.69;15283245;19;20018;-55
2023/11/20 14:03:10;;;;;;;2.78;0.93;;;;;;;10.69;100.00;97531.50;15269646;19;20497;-49
2023/11/20 14:08:37;;;;;;;2.33;0.90;;;;;;;10.68;100.00;97535.19;15274766;19;20496;-52
2023/11/20 14:14:03;;;;;;;3.20;0.90;;;;;;;10.63;100.00;97540.31;15267817;19;20035;-48
2023/11/20 14:19:30;;;;;;;2.53;0.90;;;;;;;10.57;100.00;97543.72;15279341;19;20015;-48
2023/11/20 14:24:57;;;;;;;2.25;0.80;;;;;;;10.52;100.00;97549.66;15264152;19;20021;-55
2023/11/20 14:30:24;;;;;;;3.85;1.00;;;;;;;10.54;100.00;97550.34;15269845;19;20469;-56
2023/11/20 14:35:51;;;;;;;3.15;0.98;;;;;;;10.57;100.00;97541.03;15281789;19;20084;-55
2023/11/20 14:41:17;;;;;;;3.05;0.80;;;;;;;10.50;100.00;97554.41;15292969;19;20086;-57
2023/11/20 14:46:41;;;;;;;1.90;0.80;;;;;;;10.39;100.00;97553.00;15289537;19;20021;-56
2023/11/20 14:52:09;;;;;;;1.73;0.70;;;;;;;10.32;100.00;97541.22;15286165;19;20039;-56
2023/11/20 14:57:33;;;;;;;2.30;0.80;;;;;;;10.30;100.00;97554.03;15293433;19;20606;-55
2023/11/20 15:02:59;;;;;;;3.35;0.75;;;;;;;10.24;100.00;97552.06;15285424;19;20019;-56
2023/11/20 15:08:28;;;;;;;2.60;0.80;;;;;;;10.08;100.00;97543.09;15283791;19;20029;-56
2023/11/20 15:13:53;;;;;;;1.98;0.80;;;;;;;9.90;100.00;97553.34;15289566;19;20443;-58
2023/11/20 15:19:18;;;;;;;2.90;0.80;;;;;;;9.78;100.00;97561.81;15292237;19;20026;-56
2023/11/20 15:24:53;;;;;;;2.58;0.80;;;;;;;9.64;100.00;97565.25;15282762;19;20029;-57
2023/11/20 15:30:18;;;;;;;1.80;0.80;;;;;;;9.56;100.00;97580.44;15283630;19;20014;-56
2023/11/20 15:35:43;;;;;;;2.95;0.90;;;;;;;9.46;100.00;97581.63;15285076;19;20035;-53
2023/11/20 15:41:11;;;;;;;2.08;0.75;;;;;;;9.37;100.00;97589.75;15288427;19;20018;-53
2023/11/20 15:46:36;;;;;;;2.08;0.52;;;;;;;9.25;100.00;97589.28;15284858;19;20043;-56
2023/11/20 15:52:02;;;;;;;1.50;0.63;;;;;;;9.13;100.00;97590.66;15286656;19;20017;-54
2023/11/20 15:57:29;;;;;;;2.25;0.80;;;;;;;9.07;100.00;97594.88;15287516;19;20014;-52
2023/11/20 16:02:55;;;;;;;3.00;1.05;;;;;;;9.10;100.00;97599.09;15284994;19;20476;-52
2023/11/20 16:08:21;;;;;;;2.30;0.80;;;;;;;9.08;100.00;97598.41;15286521;19;20025;-55
2023/11/20 16:13:49;;;;;;;3.53;0.90;;;;;;;9.06;100.00;97600.44;15271863;19;20015;-53
2023/11/20 16:19:15;;;;;;;1.67;0.70;;;;;;;9.06;100.00;97619.22;15280749;19;20014;-56
2023/11/20 16:24:50;;;;;;;2.85;0.93;;;;;;;9.07;100.00;97620.91;15282250;19;20043;-56
2023/11/20 16:30:19;;;;;;;3.35;0.90;;;;;;;9.08;100.00;97628.78;15283149;19;20021;-56
2023/11/20 16:35:44;;;;;;;4.25;0.80;;;;;;;9.11;100.00;97630.31;15308791;19;20043;-57
2023/11/20 16:41:10;;;;;;;2.67;0.80;;;;;;;9.17;100.00;97640.38;15295487;19;20018;-53
2023/11/20 16:46:37;;;;;;;1.65;0.73;;;;;;;9.18;100.00;97642.03;15283391;19;20082;-56
2023/11/20 16:52:03;;;;;;;2.30;0.80;;;;;;;9.15;100.00;97638.88;15276432;19;20015;-58
2023/11/20 16:57:28;;;;;;;1.88;0.75;;;;;;;9.15;100.00;97647.75;15281473;19;20028;-56
2023/11/20 17:02:56;;;;;;;1.88;0.60;;;;;;;9.28;100.00;97658.00;15282315;19;20014;-56
2023/11/20 17:08:23;;;;;;;2.97;0.70;;;;;;;9.27;100.00;97650.06;15276210;19;20096;-56
2023/11/20 17:13:49;;;;;;;2.30;0.90;;;;;;;9.13;100.00;97643.56;15277757;19;20010;-56
2023/11/20 17:19:17;;;;;;;4.25;0.65;;;;;;;9.05;100.00;97655.16;15277536;19;20015;-55
2023/11/20 17:24:48;;;;;;;1.40;0.60;;;;;;;9.01;100.00;97656.50;15275363;19;20033;-56
2023/11/20 17:30:15;;;;;;;2.40;0.85;;;;;;;8.99;100.00;97651.31;15266696;19;20016;-54
2023/11/20 17:35:43;;;;;;;6.03;0.93;;;;;;;8.97;100.00;97655.19;15269746;19;20116;-56
2023/11/20 17:41:08;;;;;;;3.72;1.00;;;;;;;8.95;100.00;97655.34;15276697;19;20022;-56
2023/11/20 17:46:33;;;;;;;2.05;0.70;;;;;;;8.92;100.00;97659.22;15275801;19;20462;-54
2023/11/20 17:52:02;;;;;;;2.47;0.80;;;;;;;8.91;100.00;97660.22;15271336;19;20028;-55
2023/11/20 17:57:27;;;;;;;1.70;0.90;;;;;;;8.90;100.00;97660.41;15277288;19;20019;-56
2023/11/20 18:02:54;;;;;;;1.80;0.70;;;;;;;8.84;100.00;97669.97;15276040;19;20073;-57
2023/11/20 18:08:24;;;;;;;1.20;0.52;;;;;;;8.80;100.00;97676.69;15265231;19;20017;-57
2023/11/20 18:13:50;;;;;;;1.27;0.60;;;;;;;8.81;100.00;97678.34;15293547;19;20031;-55
2023/11/20 18:19:15;;;;;;;1.85;0.70;;;;;;;8.76;100.00;97676.19;15296067;19;20022;-57
2023/11/20 18:24:43;;;;;;;1.40;0.60;;;;;;;8.68;100.00;97683.38;15292907;19;20036;-59
2023/11/20 18:30:08;;;;;;;2.67;0.80;;;;;;;8.58;100.00;97687.09;15292558;19;20035;-58
2023/11/20 18:35:34;;;;;;;2.90;0.70;;;;;;;8.48;100.00;97689.09;15292654;19;20374;-56
2023/11/20 18:41:02;;;;;;;2.50;0.65;;;;;;;8.46;100.00;97699.13;15291672;19;20021;-56
2023/11/20 18:46:27;;;;;;;1.73;0.70;;;;;;;8.44;100.00;97701.97;15293281;19;20022;-58
2023/11/20 18:51:51;;;;;;;1.60;0.60;;;;;;;8.43;100.00;97707.50;15267232;19;20038;-58
2023/11/20 18:57:18;;;;;;;1.25;0.55;;;;;;;8.40;100.00;97707.84;15288392;19;20467;-57
2023/11/20 19:02:43;;;;;;;1.45;0.73;;;;;;;8.38;100.00;97708.00;15291921;19;20086;-57
2023/11/20 19:08:09;;;;;;;1.40;0.60;;;;;;;8.36;100.00;97712.69;15294879;19;20348;-56
2023/11/20 19:13:37;;;;;;;0.98;0.50;;;;;;;8.37;100.00;97721.59;15280278;19;20022;-56
2023/11/20 19:19:02;;;;;;;0.95;0.50;;;;;;;8.37;100.00;97733.16;15290249;19;20014;-57
2023/11/20 19:24:27;;;;;;;1.33;0.60;;;;;;;8.41;100.00;97741.75;15267733;19;20018;-57
2023/11/20 19:29:54;;;;;;;1.95;0.40;;;;;;;8.37;100.00;97737.69;15265036;19;20006;-57
2023/11/20 19:35:21;;;;;;;1.35;0.47;;;;;;;8.12;100.00;97734.94;15266728;19;20019;-58
2023/11/20 19:40:48;;;;;;;0.47;0.30;;;;;;;7.92;100.00;97753.13;15266213;19;20014;-58
2023/11/20 19:46:16;;;;;;;0.57;0.40;;;;;;;7.83;100.00;97771.00;15257861;19;20073;-57
2023/11/20 19:51:41;;;;;;;1.20;0.47;;;;;;;7.79;100.00;97775.88;15264726;19;20022;-57
2023/11/20 19:57:07;;;;;;;1.23;0.45;;;;;;;7.75;100.00;97787.94;15261137;19;20014;-56
2023/11/20 20:02:35;;;;;;;1.65;0.60;;;;;;;7.74;100.00;97788.91;15265744;19;20018;-58
2023/11/20 20:08:01;;;;;;;1.63;0.52;;;;;;;7.72;100.00;97797.09;15265700;19;20014;-56
2023/11/20 20:13:27;;;;;;;1.98;0.60;;;;;;;7.69;100.00;97802.81;15262964;19;20031;-58
2023/11/20 20:18:54;;;;;;;2.00;0.82;;;;;;;7.67;100.00;97815.53;15274679;19;20477;-57
2023/11/20 20:24:19;;;;;;;1.48;0.63;;;;;;;7.64;100.00;97815.84;15268975;19;20017;-81
2023/11/20 20:29:45;;;;;;;2.40;0.85;;;;;;;7.60;100.00;97819.81;15279657;19;20035;-79
2023/11/20 20:35:13;;;;;;;1.75;0.65;;;;;;;7.52;100.00;97827.81;15276397;19;20011;-80
2023/11/20 20:40:38;;;;;;;1.90;0.63;;;;;;;7.43;100.00;97824.22;15280131;19;20503;-78
2023/11/20 20:46:05;;;;;;;0.65;0.50;;;;;;;7.34;100.00;97835.88;15279556;19;20094;-77
2023/11/20 20:51:33;;;;;;;1.60;0.70;;;;;;;7.21;100.00;97834.44;15278495;19;20340;-80
2023/11/20 20:56:58;;;;;;;1.17;0.47;;;;;;;7.14;100.00;97829.84;15275116;19;20015;-79
2023/11/20 21:02:22;;;;;;;1.83;0.50;;;;;;;7.07;100.00;97833.16;15280738;19;20015;-80
2023/11/20 21:07:49;;;;;;;3.22;0.63;;;;;;;7.06;100.00;97846.69;15276980;19;20345;-80
2023/11/20 21:13:14;;;;;;;1.52;0.60;;;;;;;7.02;100.00;97859.53;15277902;19;21006;-78
2023/11/20 21:18:39;;;;;;;2.22;0.50;;;;;;;7.01;100.00;97854.34;15271580;19;20014;-80
2023/11/20 21:24:07;;;;;;;1.95;0.60;;;;;;;7.00;100.00;97861.53;15279014;19;20406;-80
2023/11/20 21:29:33;;;;;;;0.70;0.60;;;;;;;7.01;100.00;97865.06;15274151;19;20098;-80
2023/11/20 21:34:57;;;;;;;1.00;0.68;;;;;;;7.02;100.00;97867.56;15275495;19;20021;-80
2023/11/20 21:40:24;;;;;;;1.33;0.40;;;;;;;7.03;100.00;97882.66;15279415;19;20029;-80
2023/11/20 21:45:51;;;;;;;1.60;0.60;;;;;;;7.03;100.00;97882.66;15280506;19;20013;-80
2023/11/20 21:51:16;;;;;;;0.55;0.40;;;;;;;7.01;100.00;97883.81;15274484;19;20018;-80
2023/11/20 21:56:43;;;;;;;0.55;0.35;;;;;;;6.99;100.00;97886.66;15277418;19;20015;-78
2023/11/20 22:02:08;;;;;;;2.25;0.50;;;;;;;6.96;100.00;97880.72;15281191;19;20078;-80
2023/11/20 22:07:33;;;;;;;1.25;0.52;;;;;;;6.92;100.00;97880.19;15286453;19;20010;-81
2023/11/20 22:13:00;;;;;;;1.08;0.70;;;;;;;6.86;100.00;97891.53;15276341;19;20054;-78
2023/11/20 22:18:26;;;;;;;2.33;0.70;;;;;;;6.82;100.00;97896.31;15275929;19;20006;-80
2023/11/20 22:23:52;;;;;;;1.73;0.60;;;;;;;6.73;100.00;97897.22;15273036;19;20014;-78
2023/11/20 22:29:19;;;;;;;1.15;0.60;;;;;;;6.66;100.00;97905.00;15276019;19;20014;-81
2023/11/20 22:34:45;;;;;;;1.98;0.70;;;;;;;6.66;100.00;97915.72;15284322;19;20007;-79
2023/11/20 22:40:29;;;;;;;1.52;0.80;;;;;;;6.64;100.00;97915.03;15282606;19;20026;-80
2023/11/20 22:45:56;;;;;;;1.98;0.85;;;;;;;6.62;100.00;97915.16;15279925;19;20021;-79
2023/11/20 22:51:28;;;;;;;2.42;0.80;;;;;;;6.59;100.00;97914.63;15272569;19;20018;-50
2023/11/20 22:56:53;;;;;;;3.47;0.93;;;;;;;6.52;100.00;97916.22;15265213;19;20014;-53
2023/11/20 23:02:21;;;;;;;1.48;0.73;;;;;;;6.48;100.00;97924.53;15276618;19;20240;-52
2023/11/20 23:07:46;;;;;;;1.60;0.98;;;;;;;6.46;100.00;97929.19;15284781;19;20021;-52
2023/11/20 23:13:12;;;;;;;2.25;0.80;;;;;;;6.41;100.00;97930.63;15279711;19;20022;-53
2023/11/20 23:18:39;;;;;;;2.22;0.80;;;;;;;6.39;100.00;97930.78;15284317;19;20437;-52
2023/11/20 23:24:04;;;;;;;3.20;0.90;;;;;;;6.40;100.00;97945.00;15279777;19;20033;-53
2023/11/20 23:29:30;;;;;;;1.98;0.85;;;;;;;6.40;100.00;97935.16;15272526;19;20035;-52
2023/11/20 23:34:57;;;;;;;2.85;1.00;;;;;;;6.43;100.00;97945.53;15277575;19;20021;-54
2023/11/20 23:40:22;;;;;;;1.60;1.00;;;;;;;6.45;100.00;97937.38;15280877;19;20069;-54
2023/11/20 23:45:48;;;;;;;1.65;0.90;;;;;;;6.45;100.00;97940.88;15279835;19;20039;-52
2023/11/20 23:51:15;;;;;;;4.10;1.10;;;;;;;6.45;100.00;97948.09;15280219;19;20078;-55
2023/11/20 23:56:40;;;;;;;1.75;0.80;;;;;;;6.41;100.00;97944.84;15277209;19;20799;-54
